Time;durP1;ratioP1;P1;durP2;ratioP2;P2;SDS_P1;SDS_P2;PMS_P1;PMS_P2;Temp;Humidity;BMP_temperature;BMP_pressure;BME280_temperature;BME280_humidity;BME280_pressure;Samples;Min_cycle;Max_cycle;Signal;HPM_P1;HPM_P2
2021/12/29 00:01:26;;;;;;;50.38;15.50;;;;;;;-12.19;93.50;101102.88;6172519;22;20015;-79
2021/12/29 00:03:53;;;;;;;19.80;8.50;;;;;;;-12.25;93.69;101107.56;6197810;22;20020;-79
2021/12/29 00:06:21;;;;;;;22.17;11.90;;;;;;;-12.40;93.17;101094.97;6222682;22;20099;-78
2021/12/29 00:08:48;;;;;;;52.20;18.38;;;;;;;-12.30;92.69;101108.97;6197154;22;20024;-81
2021/12/29 00:11:16;;;;;;;49.55;18.40;;;;;;;-12.32;92.96;101113.91;6177735;22;20087;-80
2021/12/29 00:13:42;;;;;;;49.63;10.82;;;;;;;-12.45;93.04;101103.94;6204294;22;20043;-80
2021/12/29 00:16:08;;;;;;;22.90;8.18;;;;;;;-12.58;92.99;101091.44;6203738;22;20313;-80
2021/12/29 00:18:34;;;;;;;31.27;13.82;;;;;;;-12.46;93.14;101111.38;6226926;22;20019;-80
2021/12/29 00:21:02;;;;;;;29.52;12.75;;;;;;;-12.52;92.55;101111.03;6172604;22;20047;-78
2021/12/29 00:23:28;;;;;;;23.10;10.38;;;;;;;-12.49;92.56;101121.25;6198836;22;20019;-80
2021/12/29 00:25:56;;;;;;;83.63;15.68;;;;;;;-12.55;92.35;101105.81;6224613;22;20046;-81
2021/12/29 00:28:22;;;;;;;23.42;12.75;;;;;;;-12.54;93.00;101102.53;6225355;22;20455;-80
2021/12/29 00:30:48;;;;;;;16.27;8.68;;;;;;;-12.62;91.53;101094.56;6223119;22;20367;-80
2021/12/29 00:33:33;;;;;;;10.23;8.70;;;;;;;-12.68;91.96;101088.31;6226068;22;20030;-79
2021/12/29 00:36:18;;;;;;;14.05;4.97;;;;;;;-12.78;91.95;101095.34;6250636;22;20020;-79
2021/12/29 00:39:17;;;;;;;15.65;6.57;;;;;;;-12.71;92.01;101099.94;6178696;22;20024;-78
2021/12/29 00:42:02;;;;;;;12.07;4.85;;;;;;;-12.76;92.54;101090.41;6245975;22;20348;-79
2021/12/29 00:45:04;;;;;;;17.00;10.10;;;;;;;-12.64;92.29;101106.19;6119358;23;20028;-78
2021/12/29 00:47:34;;;;;;;10.55;6.38;;;;;;;-12.61;91.34;101106.34;6177174;22;20030;-78
2021/12/29 00:50:05;;;;;;;11.93;7.40;;;;;;;-12.57;92.24;101109.91;6196518;22;20019;-78
2021/12/29 00:52:35;;;;;;;52.20;13.73;;;;;;;-12.53;92.50;101109.31;6197446;22;20150;-78
2021/12/29 00:55:02;;;;;;;14.70;8.02;;;;;;;-12.56;92.26;101102.44;6245510;22;20023;-77
2021/12/29 00:57:29;;;;;;;11.23;5.85;;;;;;;-12.60;91.55;101095.53;6196243;22;20395;-78
2021/12/29 00:59:56;;;;;;;5.78;3.97;;;;;;;-12.67;91.80;101092.56;6195398;22;20079;-79
2021/12/29 01:02:23;;;;;;;21.77;12.07;;;;;;;-12.62;91.44;101096.19;6196085;22;20043;-78
2021/12/29 01:04:51;;;;;;;16.10;9.40;;;;;;;-12.55;91.12;101105.81;6194946;22;20035;-77
2021/12/29 01:07:18;;;;;;;9.38;7.68;;;;;;;-12.64;90.83;101101.16;6197724;22;20015;-76
2021/12/29 01:09:45;;;;;;;12.20;8.23;;;;;;;-12.68;91.71;101098.38;6222897;22;20074;-77
2021/12/29 01:12:12;;;;;;;16.00;7.20;;;;;;;-12.68;90.69;101098.38;6148617;22;20011;-78
2021/12/29 01:14:43;;;;;;;7.32;5.45;;;;;;;-12.59;91.57;101099.75;6173052;22;20028;-75
2021/12/29 01:17:09;;;;;;;29.10;12.05;;;;;;;-12.66;91.35;101077.56;6174654;22;20022;-78
2021/12/29 01:19:36;;;;;;;9.00;5.93;;;;;;;-12.57;90.60;101089.81;6148317;22;20020;-78
2021/12/29 01:22:03;;;;;;;12.18;8.73;;;;;;;-12.59;91.71;101091.34;6173851;22;20021;-77
2021/12/29 01:24:31;;;;;;;27.10;11.25;;;;;;;-12.58;91.18;101095.59;6148764;22;20174;-77
2021/12/29 01:26:58;;;;;;;17.52;11.25;;;;;;;-12.57;91.78;101094.81;6172904;22;20312;-78
2021/12/29 01:29:26;;;;;;;17.27;8.48;;;;;;;-12.52;90.70;101104.34;6177487;22;20024;-80
2021/12/29 01:31:53;;;;;;;29.30;9.25;;;;;;;-12.52;91.33;101095.94;6226168;22;20094;-79
2021/12/29 01:34:21;;;;;;;10.48;6.45;;;;;;;-12.58;91.13;101098.13;6197780;22;20028;-78
2021/12/29 01:36:47;;;;;;;18.98;8.95;;;;;;;-12.52;91.31;101095.94;6173860;22;20525;-77
2021/12/29 01:39:15;;;;;;;28.67;10.10;;;;;;;-12.63;91.12;101076.91;6197243;22;20015;-78
2021/12/29 01:41:45;;;;;;;18.30;9.60;;;;;;;-12.76;91.64;101067.78;6223328;22;20162;-77
2021/12/29 01:44:16;;;;;;;3.35;3.05;;;;;;;-12.64;91.55;101105.31;6172423;22;20027;-78
2021/12/29 01:46:43;;;;;;;20.15;9.10;;;;;;;-12.69;91.62;101097.50;6200548;22;20015;-78
2021/12/29 01:49:09;;;;;;;5.90;4.88;;;;;;;-12.73;91.08;101095.63;6175471;22;20080;-78
2021/12/29 01:51:36;;;;;;;14.27;6.85;;;;;;;-12.77;91.46;101092.06;6177586;22;20015;-77
2021/12/29 01:54:15;;;;;;;18.90;8.80;;;;;;;-12.74;90.59;101094.75;6176278;22;20015;-78
2021/12/29 01:56:45;;;;;;;10.90;8.07;;;;;;;-12.89;91.16;101067.88;6201094;22;20022;-78
2021/12/29 01:59:12;;;;;;;21.60;10.98;;;;;;;-12.80;91.09;101089.38;6197968;22;20058;-77
2021/12/29 02:01:39;;;;;;;25.58;11.43;;;;;;;-12.77;91.08;101098.72;6148827;22;20077;-77
2021/12/29 02:04:05;;;;;;;13.40;7.07;;;;;;;-12.76;91.40;101101.31;6172787;22;20019;-78
2021/12/29 02:06:31;;;;;;;29.17;12.75;;;;;;;-12.74;90.81;101099.75;6147846;22;20110;-78
2021/12/29 02:08:58;;;;;;;28.60;10.20;;;;;;;-12.75;91.21;101093.00;6197331;22;20023;-78
2021/12/29 02:11:29;;;;;;;20.70;11.13;;;;;;;-12.79;91.71;101083.53;6197056;22;20455;-77
2021/12/29 02:13:57;;;;;;;33.58;13.23;;;;;;;-12.75;91.44;101082.06;6173360;22;20426;-79
2021/12/29 02:16:24;;;;;;;35.88;14.40;;;;;;;-12.75;91.88;101079.56;6173026;22;20178;-78
2021/12/29 02:18:55;;;;;;;23.15;9.48;;;;;;;-12.83;91.38;101064.06;6221910;22;20121;-79
2021/12/29 02:21:24;;;;;;;54.38;16.25;;;;;;;-12.71;91.95;101086.50;6197426;22;20134;-78
2021/12/29 02:26:36;;;;;;;21.67;11.20;;;;;;;-12.78;91.33;101092.81;6225949;22;20019;-78
2021/12/29 02:29:03;;;;;;;7.97;6.50;;;;;;;-12.78;90.77;101097.84;6173194;22;20019;-78
2021/12/29 02:31:30;;;;;;;6.93;6.18;;;;;;;-12.80;91.43;101101.94;6222165;22;20019;-79
2021/12/29 02:33:58;;;;;;;8.48;4.90;;;;;;;-12.82;90.73;101105.97;6198168;22;20023;-79
2021/12/29 02:36:26;;;;;;;3.65;3.35;;;;;;;-12.80;90.88;101104.44;6148167;22;20444;-78
2021/12/29 02:38:54;;;;;;;19.90;10.40;;;;;;;-12.83;91.26;101106.78;6196808;22;20019;-80
2021/12/29 02:41:25;;;;;;;1.75;1.75;;;;;;;-12.87;90.99;101109.88;6223307;22;20022;-78
2021/12/29 02:44:02;;;;;;;11.93;7.53;;;;;;;-13.09;90.73;101106.94;6198074;22;20020;-78
2021/12/29 02:46:29;;;;;;;19.65;10.43;;;;;;;-13.26;90.43;101090.88;6199289;22;20042;-78
2021/12/29 02:48:59;;;;;;;22.45;10.23;;;;;;;-13.34;89.80;101091.19;6196631;22;20479;-78
2021/12/29 02:51:31;;;;;;;28.35;13.63;;;;;;;-13.46;89.53;101082.91;6222719;22;20396;-78
2021/12/29 02:54:02;;;;;;;24.88;12.55;;;;;;;-13.58;90.05;101075.53;6149587;22;20168;-79
2021/12/29 02:56:29;;;;;;;17.35;9.40;;;;;;;-13.45;89.94;101103.09;6225004;22;20089;-77
2021/12/29 02:58:56;;;;;;;23.48;12.13;;;;;;;-13.42;90.37;101094.88;6174271;22;20066;-78
2021/12/29 03:01:22;;;;;;;12.15;6.82;;;;;;;-13.25;90.07;101091.75;6224426;22;20016;-78
2021/12/29 03:03:48;;;;;;;13.05;7.95;;;;;;;-13.25;91.05;101084.22;6222792;22;20493;-74
2021/12/29 03:06:14;;;;;;;11.07;8.15;;;;;;;-13.10;90.81;101092.63;6196319;22;20030;-74
2021/12/29 03:08:41;;;;;;;18.05;11.25;;;;;;;-13.03;90.25;101094.69;6147121;22;20031;-73
2021/12/29 03:11:15;;;;;;;5.43;5.03;;;;;;;-13.09;90.84;101064.25;6146560;22;20055;-75
2021/12/29 03:13:45;;;;;;;15.60;8.52;;;;;;;-12.91;90.60;101075.31;6175440;22;20016;-75
2021/12/29 03:16:11;;;;;;;5.53;4.50;;;;;;;-12.89;90.46;101078.75;6172299;22;20024;-77
2021/12/29 03:18:38;;;;;;;32.63;12.27;;;;;;;-13.12;90.66;101069.09;6195492;22;20031;-75
2021/12/29 03:21:04;;;;;;;25.88;13.60;;;;;;;-13.23;90.80;101079.25;6195815;22;20020;-75
2021/12/29 03:23:31;;;;;;;30.42;12.05;;;;;;;-13.28;90.17;101081.50;6246341;22;20056;-76
2021/12/29 03:25:57;;;;;;;21.85;12.98;;;;;;;-13.32;90.38;101077.97;6146973;22;20107;-76
2021/12/29 03:28:26;;;;;;;20.65;10.07;;;;;;;-13.30;90.36;101083.06;6196732;22;20015;-75
2021/12/29 03:30:54;;;;;;;9.50;8.50;;;;;;;-13.14;90.27;101068.13;6197314;22;20447;-75
2021/12/29 03:33:20;;;;;;;5.47;4.68;;;;;;;-13.06;90.64;101079.44;6221333;22;20019;-76
2021/12/29 03:35:51;;;;;;;18.55;8.77;;;;;;;-13.13;90.99;101072.38;6221117;22;20031;-76
2021/12/29 03:38:20;;;;;;;3.50;2.65;;;;;;;-13.18;90.51;101083.78;6221828;22;20023;-75
2021/12/29 03:40:46;;;;;;;11.43;7.90;;;;;;;-13.29;90.62;101084.81;6221342;22;20071;-75
2021/12/29 03:43:13;;;;;;;6.43;5.93;;;;;;;-13.29;90.72;101077.28;6195633;22;20030;-75
2021/12/29 03:45:40;;;;;;;2.92;2.28;;;;;;;-13.16;90.19;101096.44;6246233;22;20098;-74
2021/12/29 03:48:08;;;;;;;14.70;9.93;;;;;;;-13.19;89.78;101097.13;6196160;22;20588;-74
2021/12/29 03:50:35;;;;;;;19.38;10.85;;;;;;;-13.31;90.73;101079.69;6221843;22;20347;-74
2021/12/29 03:53:01;;;;;;;21.77;12.20;;;;;;;-13.28;89.93;101082.38;6248128;22;20435;-74
2021/12/29 03:55:27;;;;;;;18.20;5.70;;;;;;;-13.20;89.98;101084.47;6199581;22;20015;-73
2021/12/29 03:57:55;;;;;;;10.57;7.65;;;;;;;-13.29;90.46;101059.69;6247329;22;20474;-78
2021/12/29 04:00:21;;;;;;;17.00;9.10;;;;;;;-13.34;91.00;101053.50;6197411;22;20050;-73
2021/12/29 04:02:48;;;;;;;18.58;11.13;;;;;;;-13.16;89.81;101071.31;6221574;22;20054;-74
2021/12/29 04:05:17;;;;;;;21.83;12.00;;;;;;;-13.18;90.76;101073.72;6220137;22;20030;-74
2021/12/29 04:07:44;;;;;;;18.83;12.20;;;;;;;-13.15;90.37;101073.91;6171060;22;20418;-73
2021/12/29 04:10:11;;;;;;;6.65;5.25;;;;;;;-13.14;90.01;101060.56;6146080;22;20015;-74
2021/12/29 04:12:39;;;;;;;36.55;13.55;;;;;;;-13.13;90.84;101062.31;6170705;22;20023;-73
2021/12/29 04:15:06;;;;;;;31.77;14.57;;;;;;;-13.18;89.50;101068.69;6170213;22;20106;-73
2021/12/29 04:17:38;;;;;;;33.78;13.13;;;;;;;-13.30;90.03;101068.88;6193838;22;20094;-74
2021/12/29 04:22:54;;;;;;;33.70;15.52;;;;;;;-13.25;89.78;101077.53;6243393;22;20486;-75
2021/12/29 04:25:24;;;;;;;22.30;11.38;;;;;;;-13.33;89.92;101065.31;6217490;22;20092;-74
2021/12/29 04:27:51;;;;;;;21.10;8.95;;;;;;;-13.20;90.70;101070.28;6217732;22;20541;-74
2021/12/29 04:30:18;;;;;;;21.08;8.95;;;;;;;-13.14;91.04;101059.69;6218151;22;20020;-74
2021/12/29 04:32:52;;;;;;;16.80;7.70;;;;;;;-13.12;90.58;101054.03;6243065;22;20027;-74
2021/12/29 04:35:18;;;;;;;8.35;5.53;;;;;;;-13.07;90.97;101040.03;6195621;22;20039;-74
2021/12/29 04:37:44;;;;;;;20.95;7.90;;;;;;;-12.98;90.48;101057.28;6168581;22;20099;-73
2021/12/29 04:40:10;;;;;;;13.27;5.28;;;;;;;-12.94;90.83;101060.06;6193357;22;20027;-74
2021/12/29 04:42:37;;;;;;;9.65;5.57;;;;;;;-12.96;90.10;101044.03;6194840;22;20080;-72
2021/12/29 04:45:04;;;;;;;45.25;18.73;;;;;;;-13.20;90.17;101035.13;6195576;22;20099;-75
2021/12/29 04:47:31;;;;;;;18.35;11.73;;;;;;;-13.25;90.76;101031.47;6220281;22;20069;-74
2021/12/29 04:50:00;;;;;;;10.95;8.90;;;;;;;-13.16;90.80;101056.25;6196290;22;20326;-74
2021/12/29 04:52:31;;;;;;;17.98;8.48;;;;;;;-13.16;91.22;101051.22;6171378;22;20023;-73
2021/12/29 04:54:57;;;;;;;31.17;13.95;;;;;;;-13.15;90.59;101055.47;6172403;22;20019;-74
2021/12/29 04:57:23;;;;;;;13.88;7.25;;;;;;;-13.06;91.10;101048.44;6220011;22;20022;-73
2021/12/29 04:59:49;;;;;;;47.20;19.73;;;;;;;-13.10;90.80;101042.41;6195919;22;20024;-74
2021/12/29 05:02:15;;;;;;;45.63;19.83;;;;;;;-13.13;90.79;101054.78;6219880;22;20370;-74
2021/12/29 05:04:56;;;;;;;18.58;11.07;;;;;;;-13.59;89.99;101028.63;6171326;22;20024;-74
2021/12/29 05:10:08;;;;;;;32.97;11.18;;;;;;;-13.51;90.39;101070.09;6224378;22;20467;-73
2021/12/29 05:12:34;;;;;;;71.53;23.50;;;;;;;-13.63;90.05;101064.34;6220554;22;20024;-74
2021/12/29 05:15:00;;;;;;;61.47;21.63;;;;;;;-13.70;89.70;101072.25;6221647;22;20015;-73
2021/12/29 05:17:27;;;;;;;55.60;19.38;;;;;;;-13.83;89.53;101053.09;6220539;22;20162;-74
2021/12/29 05:19:53;;;;;;;26.27;12.57;;;;;;;-13.76;89.13;101076.91;6221620;22;20024;-73
2021/12/29 05:22:22;;;;;;;51.85;19.20;;;;;;;-13.84;89.05;101053.88;6171112;22;20463;-74
2021/12/29 05:24:48;;;;;;;44.22;18.13;;;;;;;-13.80;89.33;101067.47;6196839;22;20110;-74
2021/12/29 05:27:14;;;;;;;48.45;14.90;;;;;;;-13.83;89.45;101062.25;6196023;22;20019;-74
2021/12/29 05:29:40;;;;;;;38.30;16.33;;;;;;;-13.79;90.18;101060.03;6196444;22;20015;-73
2021/12/29 05:32:07;;;;;;;25.30;14.25;;;;;;;-13.72;90.17;101046.22;6195750;22;20110;-74
2021/12/29 05:34:34;;;;;;;14.38;8.40;;;;;;;-13.69;89.23;101053.06;6147132;22;20016;-74
2021/12/29 05:37:00;;;;;;;26.40;11.38;;;;;;;-13.74;89.56;101044.41;6220881;22;20517;-75
2021/12/29 05:39:27;;;;;;;7.88;5.10;;;;;;;-13.71;89.62;101047.09;6172119;22;20019;-74
2021/12/29 05:41:53;;;;;;;8.95;7.20;;;;;;;-13.69;89.99;101050.56;6170797;22;20119;-74
2021/12/29 05:44:19;;;;;;;13.82;8.07;;;;;;;-13.68;90.25;101044.78;6170326;22;20019;-75
2021/12/29 05:46:45;;;;;;;28.70;9.98;;;;;;;-13.66;89.94;101056.63;6172027;22;20011;-75
2021/12/29 05:49:12;;;;;;;6.22;4.38;;;;;;;-13.65;89.76;101052.47;6222603;22;20111;-74
2021/12/29 05:51:38;;;;;;;32.63;13.95;;;;;;;-13.61;89.47;101054.41;6221080;22;20030;-74
2021/12/29 05:54:05;;;;;;;24.83;11.73;;;;;;;-13.63;90.30;101059.31;6197396;22;20020;-75
2021/12/29 05:56:31;;;;;;;23.13;11.05;;;;;;;-13.67;89.77;101059.03;6172435;22;20136;-74
2021/12/29 05:59:01;;;;;;;25.58;13.38;;;;;;;-13.68;89.68;101059.81;6222446;22;20086;-74
2021/12/29 06:01:28;;;;;;;23.08;11.70;;;;;;;-13.82;89.94;101049.81;6175278;22;20051;-74
2021/12/29 06:03:57;;;;;;;33.05;15.70;;;;;;;-13.79;89.60;101064.19;6203653;22;20026;-74
2021/12/29 06:06:23;;;;;;;39.08;15.00;;;;;;;-13.83;89.84;101053.09;6229238;22;20838;-74
2021/12/29 06:08:52;;;;;;;62.72;22.27;;;;;;;-13.79;89.70;101062.56;6152658;22;20377;-74
2021/12/29 06:11:18;;;;;;;54.95;21.92;;;;;;;-13.79;89.38;101064.19;6221246;22;20019;-74
2021/12/29 06:13:44;;;;;;;34.00;15.32;;;;;;;-13.72;89.03;101063.78;6197173;22;20020;-74
2021/12/29 06:16:11;;;;;;;44.80;18.23;;;;;;;-13.68;89.74;101067.34;6171730;22;20016;-74
2021/12/29 06:18:37;;;;;;;43.20;19.20;;;;;;;-13.62;89.88;101075.25;6172588;22;20390;-75
2021/12/29 06:21:03;;;;;;;46.80;20.42;;;;;;;-13.60;89.13;101068.66;6197230;22;20027;-75
2021/12/29 06:23:30;;;;;;;40.03;16.85;;;;;;;-13.65;88.99;101062.53;6247914;22;20015;-74
2021/12/29 06:26:00;;;;;;;56.17;22.33;;;;;;;-13.61;89.69;101059.44;6222352;22;20020;-75
2021/12/29 06:28:28;;;;;;;20.73;13.02;;;;;;;-13.58;90.05;101049.56;6224376;22;20043;-74
2021/12/29 06:30:54;;;;;;;34.05;12.38;;;;;;;-13.54;89.08;101057.34;6221884;22;20019;-75
2021/12/29 06:33:20;;;;;;;11.55;8.98;;;;;;;-13.45;89.79;101057.06;6197192;22;20026;-74
2021/12/29 06:35:46;;;;;;;49.67;18.98;;;;;;;-13.37;89.70;101063.38;6220913;22;20440;-74
2021/12/29 06:38:13;;;;;;;52.10;21.10;;;;;;;-13.44;88.67;101068.81;6221475;22;20023;-74
2021/12/29 06:40:40;;;;;;;41.25;19.92;;;;;;;-13.41;89.49;101074.88;6196772;22;20099;-73
2021/12/29 06:43:06;;;;;;;54.72;19.73;;;;;;;-13.35;89.89;101079.41;6194958;22;20027;-73
2021/12/29 06:45:35;;;;;;;17.13;8.63;;;;;;;-13.32;90.51;101065.41;6173452;22;20035;-73
2021/12/29 06:48:01;;;;;;;34.35;13.18;;;;;;;-13.25;90.08;101062.44;6173239;22;20019;-74
2021/12/29 06:51:18;;;;;;;36.58;16.55;;;;;;;-13.20;90.42;101069.41;6173140;22;20069;-76
2021/12/29 06:54:08;;;;;;;21.13;10.82;;;;;;;-13.27;89.14;101059.00;6219963;22;20028;-75
2021/12/29 06:56:38;;;;;;;67.00;26.23;;;;;;;-13.29;88.77;101070.59;6150108;22;20019;-74
2021/12/29 06:59:14;;;;;;;54.03;20.50;;;;;;;-13.40;88.79;101065.72;6176357;22;20577;-74
2021/12/29 07:01:43;;;;;;;38.35;14.52;;;;;;;-13.17;89.70;101070.44;6174342;22;20049;-74
2021/12/29 07:04:11;;;;;;;38.92;16.55;;;;;;;-13.17;89.35;101069.56;6147593;22;20031;-77
2021/12/29 07:06:37;;;;;;;25.75;14.23;;;;;;;-13.35;89.31;101040.09;6172816;22;20020;-73
2021/12/29 07:09:03;;;;;;;6.50;5.45;;;;;;;-13.24;89.31;101045.75;6148077;22;20474;-75
2021/12/29 07:11:34;;;;;;;8.73;5.20;;;;;;;-13.18;90.08;101045.25;6171897;22;20026;-73
2021/12/29 07:14:04;;;;;;;18.70;10.35;;;;;;;-13.02;89.97;101068.78;6172695;22;20024;-76
2021/12/29 07:16:34;;;;;;;22.38;11.27;;;;;;;-13.09;90.02;101041.63;6147783;22;20047;-76
2021/12/29 07:19:02;;;;;;;11.43;7.55;;;;;;;-13.07;89.95;101045.06;6171114;22;20016;-76
2021/12/29 07:21:28;;;;;;;28.40;11.95;;;;;;;-13.02;90.06;101066.28;6171559;22;20031;-74
2021/12/29 07:23:57;;;;;;;30.98;15.57;;;;;;;-13.04;90.18;101042.72;6150227;22;20042;-75
2021/12/29 07:26:26;;;;;;;25.52;14.65;;;;;;;-12.87;89.68;101066.31;6150371;22;20027;-75
2021/12/29 07:29:18;;;;;;;22.10;12.50;;;;;;;-12.87;89.83;101067.19;6168151;22;20479;-74
2021/12/29 07:31:44;;;;;;;40.85;19.25;;;;;;;-12.96;89.71;101050.72;6171151;22;20023;-76
2021/12/29 07:34:13;;;;;;;59.08;23.27;;;;;;;-13.02;89.10;101050.34;6146767;22;20414;-78
2021/12/29 07:36:44;;;;;;;71.05;23.75;;;;;;;-13.00;89.26;101063.84;6170962;22;20348;-75
2021/12/29 07:39:36;;;;;;;25.67;9.05;;;;;;;-12.88;89.19;101050.34;6147701;22;20019;-74
2021/12/29 07:42:03;;;;;;;69.32;26.00;;;;;;;-13.02;88.71;101043.66;6171240;22;20404;-76
2021/12/29 07:44:39;;;;;;;66.15;24.48;;;;;;;-13.07;89.61;101032.50;6150765;22;20027;-76
2021/12/29 07:47:06;;;;;;;46.60;17.20;;;;;;;-13.06;89.61;101043.41;6148657;22;20076;-74
2021/12/29 07:49:32;;;;;;;55.75;21.60;;;;;;;-13.04;89.61;101037.69;6145851;22;20020;-74
2021/12/29 07:52:14;;;;;;;15.75;8.40;;;;;;;-13.09;89.08;101028.22;6157603;22;20019;-74
2021/12/29 07:54:43;;;;;;;36.53;13.90;;;;;;;-12.93;90.14;101035.81;6170648;22;20337;-75
2021/12/29 07:57:39;;;;;;;41.78;17.85;;;;;;;-13.04;90.00;101012.56;6207686;22;20493;-74
2021/12/29 08:00:14;;;;;;;48.47;20.58;;;;;;;-13.07;89.39;101007.38;6221008;22;20489;-74
2021/12/29 08:03:08;;;;;;;75.95;24.00;;;;;;;-12.89;89.68;101033.53;6174212;22;20032;-73
2021/12/29 08:05:37;;;;;;;60.67;20.17;;;;;;;-13.07;89.59;101017.44;6194084;22;20032;-74
2021/12/29 08:08:06;;;;;;;53.97;18.58;;;;;;;-12.97;89.35;101033.88;6147189;22;20019;-74
2021/12/29 08:10:34;;;;;;;94.30;33.50;;;;;;;-13.04;88.95;101035.19;6172612;22;20065;-74
2021/12/29 08:13:01;;;;;;;63.55;20.45;;;;;;;-12.90;89.87;101036.84;6190457;22;20023;-74
2021/12/29 08:15:38;;;;;;;111.00;34.17;;;;;;;-13.08;89.22;101010.66;6149635;22;20114;-75
2021/12/29 08:18:05;;;;;;;89.68;24.95;;;;;;;-12.89;88.83;101018.47;6147107;22;20023;-74
2021/12/29 08:20:43;;;;;;;50.60;19.25;;;;;;;-12.75;89.43;101016.72;6147614;22;20051;-75
2021/12/29 08:23:10;;;;;;;108.07;32.50;;;;;;;-12.51;89.27;101028.16;6148587;22;20015;-74
2021/12/29 08:25:38;;;;;;;67.00;23.25;;;;;;;-12.17;90.60;100995.66;6193239;22;20027;-74
2021/12/29 08:28:04;;;;;;;115.75;40.08;;;;;;;-12.22;88.39;101018.03;6169238;22;20020;-74
2021/12/29 08:30:30;;;;;;;95.10;28.60;;;;;;;-12.34;87.88;101016.53;6143604;22;20024;-74
2021/12/29 08:32:57;;;;;;;101.88;32.58;;;;;;;-12.12;90.04;101001.78;6269889;22;20020;-74
2021/12/29 08:35:28;;;;;;;117.40;37.00;;;;;;;-12.13;88.60;100997.53;6170768;22;20019;-74
2021/12/29 08:37:57;;;;;;;120.85;39.28;;;;;;;-11.74;89.55;100974.47;6172594;22;20027;-74
2021/12/29 08:40:24;;;;;;;70.07;24.70;;;;;;;-10.35;91.47;100985.53;6196264;22;20404;-75
2021/12/29 08:43:03;;;;;;;59.75;20.23;;;;;;;-10.11;91.28;100976.50;6165958;23;20020;-74
2021/12/29 08:45:30;;;;;;;47.97;16.08;;;;;;;-10.30;90.07;100978.16;6161264;23;20031;-74
2021/12/29 08:47:58;;;;;;;91.00;28.55;;;;;;;-10.70;88.16;100981.31;6178333;23;20028;-74
2021/12/29 08:50:29;;;;;;;49.40;22.10;;;;;;;-10.61;89.81;100980.91;6134889;23;20039;-74
2021/12/29 08:52:59;;;;;;;;;;;;;;;-10.30;88.61;100988.22;6141386;23;20536;-74
2021/12/29 08:55:25;;;;;;;47.55;17.40;;;;;;;-10.26;88.90;100974.97;6144794;23;19916;-74
2021/12/29 08:57:51;;;;;;;48.10;19.85;;;;;;;-11.71;86.06;100969.59;6121607;23;20021;-74
2021/12/29 09:00:18;;;;;;;75.03;21.65;;;;;;;-11.48;86.97;100982.47;6118216;23;20017;-74
2021/12/29 09:02:44;;;;;;;59.25;21.42;;;;;;;-10.55;87.59;100965.19;6125440;23;20095;-74
2021/12/29 09:05:11;;;;;;;65.53;25.33;;;;;;;-12.03;85.46;100979.63;6127771;23;20035;-75
2021/12/29 09:07:37;;;;;;;48.20;18.00;;;;;;;-12.28;86.53;100984.16;6176687;23;20045;-74
2021/12/29 09:10:05;;;;;;;70.88;22.67;;;;;;;-12.41;87.30;100994.34;6147037;23;20051;-74
2021/12/29 09:12:32;;;;;;;74.75;23.25;;;;;;;-12.46;87.11;100976.47;6170363;23;20016;-74
2021/12/29 09:14:58;;;;;;;88.60;30.23;;;;;;;-12.50;86.55;100974.59;6139642;23;20016;-74
2021/12/29 09:17:24;;;;;;;108.72;33.72;;;;;;;-12.52;86.74;100977.78;6136488;23;20025;-74
2021/12/29 09:19:51;;;;;;;43.30;17.88;;;;;;;-12.55;87.04;100970.94;6113125;23;20120;-74
2021/12/29 09:22:18;;;;;;;64.35;20.55;;;;;;;-12.28;87.73;100976.59;6156588;23;20028;-74
2021/12/29 09:24:46;;;;;;;30.75;15.40;;;;;;;-12.28;88.83;100981.63;6137637;23;20088;-74
2021/12/29 09:27:16;;;;;;;42.70;17.15;;;;;;;-12.09;89.44;100960.84;6139538;23;20126;-75
2021/12/29 09:29:43;;;;;;;34.42;13.70;;;;;;;-12.15;88.59;100965.53;6165458;23;20024;-76
2021/12/29 09:32:11;;;;;;;60.13;20.17;;;;;;;-11.92;89.06;100962.59;6141859;23;20162;-77
2021/12/29 09:34:38;;;;;;;27.13;12.63;;;;;;;-12.02;89.35;100965.41;6141447;23;20032;-76
2021/12/29 09:37:04;;;;;;;42.72;18.73;;;;;;;-12.05;88.26;100967.75;6117566;23;20408;-77
2021/12/29 09:39:33;;;;;;;89.78;29.92;;;;;;;-12.76;85.83;100973.13;6141555;23;20024;-76
2021/12/29 09:41:59;;;;;;;56.72;20.98;;;;;;;-12.59;86.91;100951.44;6197608;22;20098;-75
2021/12/29 09:44:25;;;;;;;27.45;12.57;;;;;;;-12.52;86.42;100955.16;6150130;22;20108;-76
2021/12/29 09:46:53;;;;;;;84.85;28.65;;;;;;;-12.38;87.32;100946.72;6179473;22;20358;-77
2021/12/29 09:49:19;;;;;;;90.75;32.15;;;;;;;-12.59;85.68;100950.56;6166968;22;20083;-76
2021/12/29 09:51:46;;;;;;;63.22;18.88;;;;;;;-12.45;87.30;100943.00;6167210;22;20019;-76
2021/12/29 09:54:12;;;;;;;50.08;18.15;;;;;;;-12.28;87.79;100929.69;6190950;22;20297;-77
2021/12/29 09:56:39;;;;;;;50.08;20.52;;;;;;;-12.23;88.45;100925.75;6168234;22;20023;-78
2021/12/29 09:59:05;;;;;;;49.67;20.65;;;;;;;-12.44;87.48;100909.56;6188996;22;20038;-75
2021/12/29 10:01:32;;;;;;;23.98;12.57;;;;;;;-12.64;86.82;100919.31;6162073;22;20019;-75
2021/12/29 10:04:02;;;;;;;47.90;20.67;;;;;;;-12.48;87.91;100910.16;6192838;22;20019;-77
2021/12/29 10:06:28;;;;;;;55.45;21.45;;;;;;;-12.59;87.35;100910.34;6192125;22;20024;-76
2021/12/29 10:08:55;;;;;;;74.97;28.38;;;;;;;-12.79;85.68;100909.28;6192195;22;20015;-75
2021/12/29 10:11:27;;;;;;;21.00;7.95;;;;;;;-12.79;88.22;100919.34;6164005;22;20024;-76
2021/12/29 10:13:53;;;;;;;43.33;17.02;;;;;;;-12.58;88.55;100902.03;6184158;22;20024;-76
2021/12/29 10:16:26;;;;;;;60.10;21.75;;;;;;;-12.42;88.19;100899.56;6176850;22;20110;-77
2021/12/29 10:19:09;;;;;;;82.40;28.33;;;;;;;-12.80;86.05;100918.50;6154794;22;20016;-76
2021/12/29 10:21:36;;;;;;;48.35;18.42;;;;;;;-12.93;86.60;100901.00;6155715;22;20028;-76
2021/12/29 10:24:02;;;;;;;103.25;33.15;;;;;;;-12.90;86.55;100893.63;6154722;22;20023;-77
2021/12/29 10:26:31;;;;;;;93.68;36.08;;;;;;;-12.99;86.18;100875.56;6176580;22;20031;-77
2021/12/29 10:29:05;;;;;;;61.97;25.52;;;;;;;-12.85;86.19;100879.66;6198639;22;20019;-76
2021/12/29 10:31:40;;;;;;;47.95;20.33;;;;;;;-12.49;88.01;100905.91;6172726;22;20054;-76
2021/12/29 10:34:12;;;;;;;71.55;25.73;;;;;;;-12.69;86.68;100893.91;6172968;22;20092;-74
2021/12/29 11:25:40;;;;;;;42.95;16.30;;;;;;;-12.92;88.73;100842.44;6213528;23;20103;-77
2021/12/29 11:28:20;;;;;;;42.65;17.15;;;;;;;-12.93;87.57;100845.75;6167250;23;20047;-75
2021/12/29 11:30:59;;;;;;;68.82;24.20;;;;;;;-13.30;87.84;100801.84;6140408;23;20415;-75
2021/12/29 11:33:34;;;;;;;72.88;25.60;;;;;;;-13.28;87.58;100820.38;6170376;23;20651;-74
2021/12/29 11:36:24;;;;;;;72.30;25.35;;;;;;;-13.09;87.73;100837.31;6200701;23;20032;-75
2021/12/29 11:38:51;;;;;;;82.50;29.23;;;;;;;-13.07;87.85;100844.13;6187355;23;20480;-76
2021/12/29 11:41:19;;;;;;;102.22;40.72;;;;;;;-13.18;87.83;100842.69;6187462;23;20084;-77
2021/12/29 11:43:51;;;;;;;68.28;22.48;;;;;;;-13.16;87.75;100831.09;6168268;23;20472;-75
2021/12/29 11:46:21;;;;;;;51.28;22.67;;;;;;;-13.14;87.75;100839.56;6144466;23;20150;-76
2021/12/29 11:48:47;;;;;;;83.75;30.15;;;;;;;-13.18;87.33;100837.66;6119504;23;20021;-76
2021/12/29 11:51:14;;;;;;;94.65;34.83;;;;;;;-13.09;87.27;100847.38;6118563;23;20551;-76
2021/12/29 11:53:47;;;;;;;31.52;16.17;;;;;;;-13.18;87.28;100840.19;6118580;23;20044;-76
2021/12/29 11:56:18;;;;;;;110.75;40.60;;;;;;;-13.29;87.63;100839.63;6143386;23;20047;-77
2021/12/29 11:58:45;;;;;;;57.50;23.35;;;;;;;-13.31;88.06;100831.13;6157300;23;20020;-75
2021/12/29 12:01:12;;;;;;;77.55;29.70;;;;;;;-13.40;88.53;100829.75;6191814;23;20056;-76
2021/12/29 12:04:10;;;;;;;114.22;39.17;;;;;;;-13.42;88.58;100821.28;6155137;23;20128;-76
2021/12/29 12:07:18;;;;;;;48.20;22.20;;;;;;;-13.38;88.78;100830.72;6173878;23;20031;-74
2021/12/29 12:09:48;;;;;;;40.65;17.80;;;;;;;-13.39;88.34;100831.47;6206329;23;20028;-72
2021/12/29 12:12:15;;;;;;;130.00;51.50;;;;;;;-13.49;88.24;100844.28;6117701;23;20017;-73